St. Margarethen - Festspielgelnde
Wetterdaten: aktuell Mittwoch, 19.01.2022 23:47
Datum Zeit Temp. A. Feuchte A. Regen Wind Richtung Richtung Taupunkt Windchill Windben
19.01.2022 23:47 -2,7 C 89 % 0,0 l/m 2,1 km/h (1 Bft) SW 229 -4,3 C -2,7 C 3,2 km/h (1 Bft)
19.01.2022 22:47 -2,1 C 90 % 0,0 l/m 0,1 km/h (0 Bft) W 268 -3,5 C -2,1 C 1,6 km/h (1 Bft)
19.01.2022 21:47 -2,1 C 89 % 0,0 l/m 1,5 km/h (1 Bft) W-SW 239 -3,7 C -2,1 C 4,8 km/h (1 Bft)
19.01.2022 20:47 -0,7 C 84 % 0,0 l/m 0,0 km/h (0 Bft) NO 48 -3,1 C -0,7 C 0,0 km/h (0 Bft)
19.01.2022 19:47 0,1 C 83 % 0,0 l/m 4,8 km/h (1 Bft) O-NO 58 -2,4 C 0,1 C 4,8 km/h (1 Bft)
19.01.2022 18:47 1,6 C 79 % 0,0 l/m 2,7 km/h (1 Bft) SO 142 -1,6 C 1,6 C 3,2 km/h (1 Bft)
19.01.2022 17:47 1,9 C 78 % 0,0 l/m 5,3 km/h (1 Bft) O-SO 108 -1,5 C 1,9 C 8,0 km/h (2 Bft)
19.01.2022 16:47 2,5 C 75 % 0,0 l/m 7,9 km/h (2 Bft) O-NO 61 -1,5 C 1,1 C 9,7 km/h (2 Bft)
19.01.2022 15:47 4,8 C 69 % 0,0 l/m 5,6 km/h (1 Bft) O 93 -0,4 C 4,8 C 8,0 km/h (2 Bft)
19.01.2022 14:47 5,1 C 68 % 0,0 l/m 10,1 km/h (2 Bft) O-SO 107 -0,3 C 2,1 C 14,5 km/h (3 Bft)
19.01.2022 13:47 4,8 C 69 % 0,0 l/m 7,0 km/h (2 Bft) O 101 -0,4 C 4,3 C 12,9 km/h (3 Bft)
19.01.2022 12:47 4,3 C 69 % 0,0 l/m 7,2 km/h (2 Bft) SO 132 -0,9 C 3,6 C 12,9 km/h (3 Bft)
19.01.2022 11:47 2,7 C 78 % 0,0 l/m 6,1 km/h (2 Bft) O 98 -0,7 C 2,7 C 8,0 km/h (2 Bft)
19.01.2022 10:47 1,2 C 83 % 0,0 l/m 7,9 km/h (2 Bft) O 93 -1,4 C -0,3 C 11,3 km/h (2 Bft)
19.01.2022 09:47 -1,7 C 89 % 0,0 l/m 8,9 km/h (2 Bft) O-NO 59 -3,3 C -4,3 C 11,3 km/h (2 Bft)
19.01.2022 08:47 0,0 C 0 % 0,0 l/m 0,0 km/h (0 Bft) N 0 -60,0 C 0,0 C 0,0 km/h (0 Bft)
19.01.2022 07:47 0,0 C 0 % 0,0 l/m 0,0 km/h (0 Bft) N 0 -60,0 C 0,0 C 0,0 km/h (0 Bft)
19.01.2022 06:47 0,0 C 0 % 0,0 l/m 0,0 km/h (0 Bft) N 0 -60,0 C 0,0 C 0,0 km/h (0 Bft)
19.01.2022 05:47 0,0 C 0 % 0,0 l/m 0,0 km/h (0 Bft) N 0 -60,0 C 0,0 C 0,0 km/h (0 Bft)
19.01.2022 04:47 0,0 C 0 % 0,0 l/m 0,0 km/h (0 Bft) N 0 -60,0 C 0,0 C 0,0 km/h (0 Bft)
19.01.2022 03:44 -2,7 C 83 % 0,0 l/m 4,8 km/h (1 Bft) W 266 -5,2 C -2,7 C 4,8 km/h (1 Bft)
19.01.2022 02:44 -2,1 C 83 % 0,0 l/m 6,1 km/h (2 Bft) SW 221 -4,6 C -2,1 C 6,4 km/h (2 Bft)
19.01.2022 01:44 -0,6 C 78 % 0,0 l/m 6,2 km/h (2 Bft) W-NW 283 -3,9 C -0,6 C 6,4 km/h (2 Bft)
19.01.2022 00:44 -0,5 C 78 % 0,0 l/m 1,6 km/h (1 Bft) W 262 -3,9 C -0,5 C 1,6 km/h (1 Bft)
19.01.2022 00:00 0,7 C 74 % 0,0 l/m 9,7 km/h (2 Bft) NW 326 -3,4 C -2,4 C 14,5 km/h (3 Bft)
_ Min-Zeit 02:49 04:01 - 00:41 - - 04:01 09:32 00:41
Minimum _ -2,8 C 0 % - 0,0 km/h (0 Bft) - - -60,0 C -5,2 C 0,0 km/h (0 Bft)
_ Max-Zeit 14:29 22:01 00:00 13:55 - - 14:29 14:53 15:18
Maximum _ 5,1 C 91 % 0,0 l/m 13,9 km/h
O-SO (3 Bft)
- - -0,1 C 5,1 C 20,9 km/h
O-SO (4 Bft)
Durchschnitt _ 0,7 C 61 % #0,0 l/m 4,4 km/h (1 Bft) O - -15,6 C 0,1 C 6,0 km/h (2 Bft)